Time;durP1;ratioP1;P1;durP2;ratioP2;P2;SDS_P1;SDS_P2;PMS_P1;PMS_P2;Temp;Humidity;BMP_temperature;BMP_pressure;BME280_temperature;BME280_humidity;BME280_pressure;Samples;Min_cycle;Max_cycle;Signal;HPM_P1;HPM_P2
2022/05/19 00:01:01;;;;;;;;;;;21.20;99.20;;;;;;6067830;23;20309;-82
2022/05/19 00:03:55;;;;;;;;;;;21.30;99.20;;;;;;6068082;23;19991;-81
2022/05/19 00:06:20;;;;;;;;;;;21.20;99.20;;;;;;6067937;23;19912;-81
2022/05/19 00:08:46;;;;;;;;;;;21.20;99.20;;;;;;6067892;23;19901;-81
2022/05/19 00:11:13;;;;;;;;;;;21.20;99.20;;;;;;6093312;23;19936;-81
2022/05/19 00:13:38;;;;;;;;;;;21.20;99.20;;;;;;6093405;23;20237;-81
2022/05/19 00:16:05;;;;;;;;;;;21.20;99.20;;;;;;6067897;23;19908;-81
2022/05/19 00:18:31;;;;;;;;;;;21.20;99.20;;;;;;6093319;23;19911;-81
2022/05/19 00:20:56;;;;;;;;;;;21.20;99.20;;;;;;6068294;23;19901;-82
2022/05/19 00:23:22;;;;;;;;;;;21.10;99.20;;;;;;6093263;23;19955;-82
2022/05/19 00:25:47;;;;;;;;;;;21.10;99.10;;;;;;6067763;23;19901;-82
2022/05/19 00:28:13;;;;;;;;;;;21.10;99.20;;;;;;6067703;23;19901;-81
2022/05/19 00:30:38;;;;;;;;;;;21.10;99.20;;;;;;6093209;23;19992;-81
2022/05/19 00:33:04;;;;;;;;;;;21.10;99.20;;;;;;6093442;23;19912;-81
2022/05/19 00:35:30;;;;;;;;;;;21.10;99.20;;;;;;6067782;23;20349;-81
2022/05/19 00:37:55;;;;;;;;;;;21.10;99.20;;;;;;6093170;23;19901;-81
2022/05/19 00:40:22;;;;;;;;;;;21.10;99.20;;;;;;6067693;23;19902;-81
2022/05/19 00:42:47;;;;;;;;;;;21.10;99.10;;;;;;6067625;23;19929;-82
2022/05/19 00:45:36;;;;;;;;;;;21.00;99.10;;;;;;6067587;23;19908;-82
2022/05/19 00:48:05;;;;;;;;;;;21.00;99.10;;;;;;6059497;23;19908;-81
2022/05/19 00:50:34;;;;;;;;;;;21.00;99.10;;;;;;6067493;23;20237;-81
2022/05/19 00:53:26;;;;;;;;;;;21.00;99.10;;;;;;6067428;23;19905;-81
2022/05/19 00:55:52;;;;;;;;;;;21.00;99.10;;;;;;6065125;23;20373;-81
2022/05/19 00:58:28;;;;;;;;;;;21.00;99.10;;;;;;6067327;23;19992;-81
2022/05/19 01:00:54;;;;;;;;;;;21.00;99.00;;;;;;6067466;23;19908;-81
2022/05/19 01:03:20;;;;;;;;;;;20.90;99.10;;;;;;6067448;23;19901;-81
2022/05/19 01:05:55;;;;;;;;;;;20.90;99.00;;;;;;6067452;23;20328;-81
2022/05/19 01:08:32;;;;;;;;;;;20.90;99.00;;;;;;6092965;23;19905;-81
2022/05/19 01:10:58;;;;;;;;;;;20.90;99.00;;;;;;6092932;23;19901;-81
2022/05/19 01:13:29;;;;;;;;;;;20.90;99.00;;;;;;6067938;23;19902;-81
2022/05/19 01:15:55;;;;;;;;;;;20.90;99.00;;;;;;6068820;23;20332;-81
2022/05/19 01:18:21;;;;;;;;;;;20.90;99.00;;;;;;6068727;23;19932;-81
2022/05/19 01:20:47;;;;;;;;;;;20.90;99.00;;;;;;6068687;23;20083;-81
2022/05/19 01:23:12;;;;;;;;;;;20.80;99.00;;;;;;6068735;23;20334;-81
2022/05/19 01:25:56;;;;;;;;;;;20.80;98.90;;;;;;6068617;23;20027;-81
2022/05/19 01:28:22;;;;;;;;;;;20.80;99.00;;;;;;6068747;23;19908;-81
2022/05/19 01:30:47;;;;;;;;;;;20.80;98.90;;;;;;6068606;23;19901;-81
2022/05/19 01:33:13;;;;;;;;;;;20.80;98.90;;;;;;6068618;23;19908;-81
2022/05/19 01:35:38;;;;;;;;;;;20.70;98.80;;;;;;6068606;23;19939;-81
2022/05/19 01:38:11;;;;;;;;;;;20.70;98.80;;;;;;6094159;23;19936;-80
2022/05/19 01:40:56;;;;;;;;;;;20.70;98.80;;;;;;6068658;23;19901;-80
2022/05/19 01:43:28;;;;;;;;;;;20.70;98.80;;;;;;6094131;23;20234;-81
2022/05/19 01:45:56;;;;;;;;;;;20.70;98.70;;;;;;6094128;23;19902;-80
2022/05/19 01:48:41;;;;;;;;;;;20.70;98.70;;;;;;6068533;23;19902;-80
2022/05/19 01:51:10;;;;;;;;;;;20.70;98.70;;;;;;6094003;23;19983;-80
2022/05/19 01:53:47;;;;;;;;;;;20.70;98.70;;;;;;6094101;23;19901;-80
2022/05/19 01:56:19;;;;;;;;;;;20.70;98.70;;;;;;6068264;23;19901;-81
2022/05/19 01:58:48;;;;;;;;;;;20.70;98.70;;;;;;6068582;23;19908;-81
2022/05/19 02:01:15;;;;;;;;;;;20.70;98.60;;;;;;6068457;23;19902;-81
2022/05/19 02:03:47;;;;;;;;;;;20.60;98.60;;;;;;6094047;23;19912;-81
2022/05/19 02:06:15;;;;;;;;;;;20.60;98.60;;;;;;6068585;23;20318;-81
2022/05/19 02:08:53;;;;;;;;;;;20.60;98.60;;;;;;6068449;23;19906;-81
2022/05/19 02:11:25;;;;;;;;;;;20.60;98.60;;;;;;6068409;23;19948;-81
2022/05/19 02:13:51;;;;;;;;;;;20.60;98.60;;;;;;6068539;23;20245;-81
2022/05/19 02:16:18;;;;;;;;;;;20.50;98.40;;;;;;6068361;23;19940;-81
2022/05/19 02:18:44;;;;;;;;;;;20.60;98.60;;;;;;6068408;23;19905;-81
2022/05/19 02:21:10;;;;;;;;;;;20.50;98.60;;;;;;6068450;23;19901;-80
2022/05/19 02:23:36;;;;;;;;;;;20.50;98.60;;;;;;6093892;23;19908;-80
2022/05/19 02:26:02;;;;;;;;;;;20.50;98.60;;;;;;6067856;23;19901;-80
2022/05/19 02:28:37;;;;;;;;;;;20.50;98.60;;;;;;6093981;23;19907;-80
2022/05/19 02:31:03;;;;;;;;;;;20.50;98.60;;;;;;6068279;23;19905;-81
2022/05/19 02:33:28;;;;;;;;;;;20.40;98.60;;;;;;6068401;23;20317;-81
2022/05/19 02:35:54;;;;;;;;;;;20.40;98.50;;;;;;6094056;23;19924;-80
2022/05/19 02:38:20;;;;;;;;;;;20.40;98.50;;;;;;6068407;23;19908;-80
2022/05/19 02:40:46;;;;;;;;;;;20.40;98.50;;;;;;6068381;23;19901;-81
2022/05/19 02:43:12;;;;;;;;;;;20.40;98.50;;;;;;6093973;23;19951;-80
2022/05/19 02:45:38;;;;;;;;;;;20.40;98.60;;;;;;6093896;23;20004;-81
2022/05/19 02:48:05;;;;;;;;;;;20.40;98.60;;;;;;6068333;23;19933;-81
2022/05/19 02:50:31;;;;;;;;;;;20.40;98.60;;;;;;6068290;23;19955;-81
2022/05/19 02:52:57;;;;;;;;;;;20.40;98.50;;;;;;6093803;23;20332;-81
2022/05/19 02:55:22;;;;;;;;;;;20.40;98.50;;;;;;6093869;23;20233;-80
2022/05/19 02:57:48;;;;;;;;;;;20.30;98.40;;;;;;6068029;23;19931;-81
2022/05/19 03:00:15;;;;;;;;;;;20.30;98.40;;;;;;6093912;23;19972;-80
2022/05/19 03:02:42;;;;;;;;;;;20.30;98.30;;;;;;6093891;23;19909;-80
2022/05/19 03:05:08;;;;;;;;;;;20.30;98.30;;;;;;6068225;23;19908;-80
2022/05/19 03:07:34;;;;;;;;;;;20.30;98.30;;;;;;6068210;23;20274;-80
2022/05/19 03:09:59;;;;;;;;;;;20.20;98.30;;;;;;6068297;23;19909;-80
2022/05/19 03:12:25;;;;;;;;;;;20.30;98.30;;;;;;6068295;23;19916;-80
2022/05/19 03:14:50;;;;;;;;;;;20.30;98.40;;;;;;6068324;23;19913;-80
2022/05/19 03:17:16;;;;;;;;;;;20.20;98.40;;;;;;6093821;23;19901;-80
2022/05/19 03:19:41;;;;;;;;;;;20.20;98.30;;;;;;6068294;23;19905;-80
2022/05/19 03:22:07;;;;;;;;;;;20.30;98.30;;;;;;6068236;23;19955;-81
2022/05/19 03:24:33;;;;;;;;;;;20.20;98.30;;;;;;6093916;23;19989;-81
2022/05/19 03:26:59;;;;;;;;;;;20.20;98.30;;;;;;6068281;23;19936;-80
2022/05/19 03:29:24;;;;;;;;;;;20.10;98.30;;;;;;6068371;23;19901;-80
2022/05/19 03:31:50;;;;;;;;;;;20.20;98.30;;;;;;6068197;23;20433;-80
2022/05/19 03:34:17;;;;;;;;;;;20.10;98.30;;;;;;6068302;23;19984;-80
2022/05/19 03:36:43;;;;;;;;;;;20.10;98.30;;;;;;6093994;23;19901;-80
2022/05/19 03:39:09;;;;;;;;;;;20.10;98.30;;;;;;6068192;23;19952;-80
2022/05/19 03:41:35;;;;;;;;;;;20.10;98.30;;;;;;6068256;23;19901;-80
2022/05/19 03:44:01;;;;;;;;;;;20.10;98.60;;;;;;6068146;23;19909;-80
2022/05/19 03:46:26;;;;;;;;;;;20.10;98.30;;;;;;6093712;23;20328;-81
2022/05/19 03:48:52;;;;;;;;;;;20.00;98.20;;;;;;6093794;23;19935;-81
2022/05/19 03:51:21;;;;;;;;;;;20.10;98.30;;;;;;6093990;23;19951;-80
2022/05/19 03:53:47;;;;;;;;;;;20.10;98.30;;;;;;6093623;23;19929;-81
2022/05/19 03:56:12;;;;;;;;;;;20.10;98.20;;;;;;6067717;23;19967;-80
2022/05/19 03:58:38;;;;;;;;;;;20.10;98.20;;;;;;6093605;23;20225;-81
2022/05/19 04:01:05;;;;;;;;;;;20.00;98.20;;;;;;6068080;23;20228;-80
2022/05/19 04:03:30;;;;;;;;;;;20.00;98.20;;;;;;6093517;23;20333;-80
2022/05/19 04:05:56;;;;;;;;;;;20.00;98.20;;;;;;6093527;23;19901;-80
2022/05/19 04:08:21;;;;;;;;;;;20.00;98.20;;;;;;6068032;23;19901;-80
2022/05/19 04:10:48;;;;;;;;;;;20.00;98.30;;;;;;6067971;23;19901;-81
2022/05/19 04:13:14;;;;;;;;;;;20.00;98.30;;;;;;6093391;23;19959;-80
2022/05/19 04:15:39;;;;;;;;;;;20.00;98.30;;;;;;6067842;23;19901;-80
2022/05/19 04:18:06;;;;;;;;;;;19.90;98.40;;;;;;6067856;23;19980;-80
2022/05/19 04:20:31;;;;;;;;;;;20.00;98.40;;;;;;6093448;23;19901;-80
2022/05/19 04:22:58;;;;;;;;;;;19.90;98.30;;;;;;6067865;23;19963;-80
2022/05/19 04:25:23;;;;;;;;;;;19.90;98.40;;;;;;6067811;23;19975;-80
2022/05/19 04:27:49;;;;;;;;;;;20.00;98.40;;;;;;6067905;23;20280;-80
2022/05/19 04:30:15;;;;;;;;;;;20.00;98.50;;;;;;6093740;23;20207;-80
2022/05/19 04:32:41;;;;;;;;;;;19.90;98.50;;;;;;6067755;23;19991;-81
2022/05/19 04:35:06;;;;;;;;;;;19.90;98.50;;;;;;6093335;23;19947;-80
2022/05/19 04:37:32;;;;;;;;;;;19.90;98.50;;;;;;6067796;23;19902;-80
2022/05/19 04:40:01;;;;;;;;;;;19.90;98.60;;;;;;6093583;23;19902;-80
2022/05/19 04:42:27;;;;;;;;;;;19.90;98.60;;;;;;6093259;23;19951;-80
2022/05/19 04:44:53;;;;;;;;;;;19.90;98.60;;;;;;6067594;23;19901;-80
2022/05/19 04:47:19;;;;;;;;;;;19.90;98.60;;;;;;6093178;23;20310;-80
2022/05/19 04:49:44;;;;;;;;;;;19.90;98.70;;;;;;6094293;23;19909;-80
2022/05/19 04:52:10;;;;;;;;;;;19.90;98.70;;;;;;6094204;23;20345;-80
2022/05/19 04:54:35;;;;;;;;;;;19.90;98.70;;;;;;6094217;23;20310;-80
2022/05/19 04:57:01;;;;;;;;;;;19.90;98.80;;;;;;6094117;23;19913;-80
2022/05/19 04:59:26;;;;;;;;;;;19.90;98.90;;;;;;6068815;23;19909;-80
2022/05/19 05:01:52;;;;;;;;;;;19.90;98.90;;;;;;6068845;23;19902;-80
2022/05/19 05:04:19;;;;;;;;;;;19.90;99.00;;;;;;6068886;23;19901;-80
2022/05/19 05:06:45;;;;;;;;;;;19.90;99.00;;;;;;6094311;23;19924;-80
2022/05/19 05:09:10;;;;;;;;;;;19.90;99.20;;;;;;6068844;23;19905;-80
2022/05/19 05:11:39;;;;;;;;;;;19.90;99.30;;;;;;6068806;23;19905;-80
2022/05/19 05:14:04;;;;;;;;;;;19.90;99.30;;;;;;6068962;23;19901;-80
2022/05/19 05:16:30;;;;;;;;;;;19.90;99.40;;;;;;6068869;23;19955;-80
2022/05/19 05:18:55;;;;;;;;;;;19.90;99.50;;;;;;6068836;23;19902;-80
2022/05/19 05:21:21;;;;;;;;;;;19.90;99.50;;;;;;6068748;23;20292;-80
2022/05/19 05:23:46;;;;;;;;;;;19.90;99.60;;;;;;6068828;23;20234;-80
2022/05/19 05:26:12;;;;;;;;;;;19.90;99.60;;;;;;6068912;23;19901;-80
2022/05/19 05:28:37;;;;;;;;;;;19.90;99.70;;;;;;6068874;23;19902;-80
2022/05/19 05:31:03;;;;;;;;;;;19.90;99.70;;;;;;6068773;23;19901;-80
2022/05/19 05:33:29;;;;;;;;;;;19.80;99.70;;;;;;6068830;23;19902;-80
2022/05/19 05:35:54;;;;;;;;;;;19.80;99.80;;;;;;6068806;23;19929;-80
2022/05/19 05:38:20;;;;;;;;;;;19.90;99.90;;;;;;6068850;23;20348;-80
2022/05/19 05:40:46;;;;;;;;;;;19.90;99.90;;;;;;6094507;23;19947;-80
2022/05/19 05:43:17;;;;;;;;;;;19.90;99.90;;;;;;6094308;23;19902;-80
2022/05/19 05:45:43;;;;;;;;;;;19.90;99.90;;;;;;6068822;23;20233;-80
2022/05/19 05:48:09;;;;;;;;;;;19.90;99.90;;;;;;6094296;23;19976;-80
2022/05/19 05:50:34;;;;;;;;;;;19.90;99.90;;;;;;6068733;23;19937;-80
2022/05/19 05:53:00;;;;;;;;;;;19.90;99.90;;;;;;6068679;23;19976;-80
2022/05/19 05:55:26;;;;;;;;;;;19.80;99.90;;;;;;6068647;23;20339;-80
2022/05/19 05:57:51;;;;;;;;;;;19.90;99.90;;;;;;6068619;23;19913;-80
2022/05/19 06:00:17;;;;;;;;;;;19.80;99.90;;;;;;6068535;23;19967;-80
2022/05/19 06:02:43;;;;;;;;;;;19.90;99.90;;;;;;6068564;23;19985;-80
2022/05/19 06:05:10;;;;;;;;;;;19.90;99.90;;;;;;6068613;23;19943;-81
2022/05/19 06:07:35;;;;;;;;;;;19.90;99.90;;;;;;6068681;23;19908;-80
2022/05/19 06:10:01;;;;;;;;;;;19.90;99.90;;;;;;6068721;23;20237;-80
2022/05/19 06:12:26;;;;;;;;;;;19.90;99.90;;;;;;6068577;23;19912;-80
2022/05/19 06:14:56;;;;;;;;;;;19.90;99.90;;;;;;6068803;23;19908;-80
2022/05/19 06:17:23;;;;;;;;;;;19.90;99.90;;;;;;6068627;23;19908;-81
2022/05/19 06:19:49;;;;;;;;;;;19.90;99.90;;;;;;6094145;23;19910;-80
2022/05/19 06:22:15;;;;;;;;;;;19.90;99.90;;;;;;6094170;23;19901;-80
2022/05/19 06:24:40;;;;;;;;;;;19.90;99.90;;;;;;6068782;23;19964;-80
2022/05/19 06:27:06;;;;;;;;;;;19.90;99.90;;;;;;6094245;23;19901;-80
2022/05/19 06:29:31;;;;;;;;;;;19.90;99.90;;;;;;6094375;23;20210;-80
2022/05/19 06:31:57;;;;;;;;;;;20.00;99.90;;;;;;6068566;23;19905;-80
2022/05/19 06:34:22;;;;;;;;;;;20.00;99.90;;;;;;6094185;23;19901;-80
2022/05/19 06:36:48;;;;;;;;;;;20.00;99.90;;;;;;6068656;23;19929;-80
2022/05/19 06:39:16;;;;;;;;;;;20.00;99.90;;;;;;6094155;23;19934;-81
2022/05/19 06:42:00;;;;;;;;;;;20.00;99.90;;;;;;6068638;23;19905;-80
2022/05/19 06:44:37;;;;;;;;;;;20.00;99.90;;;;;;6068611;23;19901;-81
2022/05/19 06:47:03;;;;;;;;;;;20.00;99.90;;;;;;6068509;23;19901;-81
2022/05/19 06:49:29;;;;;;;;;;;20.00;99.90;;;;;;6094067;23;19901;-80
2022/05/19 06:51:55;;;;;;;;;;;20.00;99.90;;;;;;6068493;23;20329;-81
2022/05/19 06:54:21;;;;;;;;;;;20.00;99.90;;;;;;6068587;23;19920;-81
2022/05/19 06:56:47;;;;;;;;;;;20.10;99.90;;;;;;6093908;23;20343;-80
2022/05/19 06:59:15;;;;;;;;;;;20.10;99.90;;;;;;6094148;23;19975;-81
2022/05/19 07:01:41;;;;;;;;;;;20.10;99.90;;;;;;6068471;23;19928;-80
2022/05/19 07:04:07;;;;;;;;;;;20.10;99.90;;;;;;6068483;23;19901;-81
2022/05/19 07:06:33;;;;;;;;;;;20.10;99.90;;;;;;6094381;23;19901;-80
2022/05/19 07:08:58;;;;;;;;;;;20.10;99.90;;;;;;6068539;23;19901;-81
2022/05/19 07:11:26;;;;;;;;;;;20.10;99.90;;;;;;6093604;23;19908;-81
2022/05/19 07:13:56;;;;;;;;;;;20.10;99.90;;;;;;6094103;23;19901;-81
2022/05/19 07:16:22;;;;;;;;;;;20.10;99.90;;;;;;6068340;23;19951;-80
2022/05/19 07:18:47;;;;;;;;;;;20.10;99.90;;;;;;6093996;23;19905;-81
2022/05/19 07:21:14;;;;;;;;;;;20.10;99.90;;;;;;6093975;23;19901;-81
2022/05/19 07:23:40;;;;;;;;;;;20.20;99.90;;;;;;6094003;23;19948;-81
2022/05/19 07:26:05;;;;;;;;;;;20.20;99.90;;;;;;6093956;23;20207;-81
2022/05/19 07:28:31;;;;;;;;;;;20.20;99.90;;;;;;6093956;23;19936;-81
2022/05/19 07:30:57;;;;;;;;;;;20.20;99.90;;;;;;6068345;23;19901;-81
2022/05/19 07:33:22;;;;;;;;;;;20.20;99.90;;;;;;6093795;23;19905;-81
2022/05/19 07:35:50;;;;;;;;;;;20.20;99.90;;;;;;6068323;23;19924;-81
2022/05/19 07:38:16;;;;;;;;;;;20.20;99.90;;;;;;6068286;23;20238;-81
2022/05/19 07:40:43;;;;;;;;;;;20.20;99.90;;;;;;6068290;23;20318;-81
2022/05/19 07:45:52;;;;;;;;;;;20.20;99.90;;;;;;6093875;23;19908;-81
2022/05/19 07:48:18;;;;;;;;;;;20.30;99.90;;;;;;6068255;23;19902;-81
2022/05/19 07:50:43;;;;;;;;;;;20.30;99.90;;;;;;6068228;23;19901;-81
2022/05/19 07:53:09;;;;;;;;;;;20.50;99.90;;;;;;6068134;23;19912;-81
2022/05/19 07:55:35;;;;;;;;;;;20.60;99.90;;;;;;6093805;23;19905;-80
2022/05/19 07:58:01;;;;;;;;;;;20.60;99.90;;;;;;6093523;23;19917;-81
2022/05/19 08:00:26;;;;;;;;;;;20.60;99.90;;;;;;6068206;23;19944;-81
2022/05/19 08:02:52;;;;;;;;;;;20.60;99.90;;;;;;6093724;23;19901;-81
2022/05/19 08:05:17;;;;;;;;;;;20.60;99.90;;;;;;6068208;23;19901;-80
2022/05/19 08:07:43;;;;;;;;;;;20.60;99.90;;;;;;6068140;23;19994;-81
2022/05/19 08:10:20;;;;;;;;;;;20.60;99.90;;;;;;6093661;23;19955;-80
2022/05/19 08:15:37;;;;;;;;;;;20.60;99.90;;;;;;6094024;23;19928;-80
2022/05/19 08:18:04;;;;;;;;;;;20.60;99.90;;;;;;6068227;23;19901;-80
2022/05/19 08:20:29;;;;;;;;;;;20.60;99.90;;;;;;6068072;23;20344;-80
2022/05/19 08:22:55;;;;;;;;;;;20.60;99.90;;;;;;6067211;23;19901;-81
2022/05/19 08:25:26;;;;;;;;;;;20.70;99.90;;;;;;6068145;23;19911;-81
2022/05/19 08:27:53;;;;;;;;;;;20.70;99.90;;;;;;6093539;23;19983;-81
2022/05/19 08:30:18;;;;;;;;;;;20.70;99.90;;;;;;6093535;23;19902;-81
2022/05/19 08:32:44;;;;;;;;;;;20.70;99.90;;;;;;6067851;23;19913;-82
2022/05/19 08:35:10;;;;;;;;;;;20.80;99.90;;;;;;6067853;23;19924;-81
2022/05/19 08:37:35;;;;;;;;;;;20.80;99.90;;;;;;6067854;23;19907;-81
2022/05/19 08:40:01;;;;;;;;;;;20.80;99.90;;;;;;6067871;23;19912;-80
2022/05/19 08:42:27;;;;;;;;;;;20.80;99.90;;;;;;6093372;23;19901;-81
2022/05/19 08:44:55;;;;;;;;;;;20.90;99.90;;;;;;6093579;23;19952;-81
2022/05/19 08:47:24;;;;;;;;;;;20.90;99.90;;;;;;6067842;23;19902;-81
2022/05/19 08:49:57;;;;;;;;;;;20.90;99.90;;;;;;6093359;23;19901;-81
2022/05/19 08:52:25;;;;;;;;;;;20.90;99.90;;;;;;6067719;23;20233;-81
2022/05/19 08:54:52;;;;;;;;;;;21.00;99.90;;;;;;6067726;23;19902;-81
2022/05/19 08:57:26;;;;;;;;;;;21.00;99.90;;;;;;6062775;23;19917;-81
2022/05/19 09:00:10;;;;;;;;;;;21.00;99.90;;;;;;6062955;23;19905;-81
2022/05/19 09:02:45;;;;;;;;;;;21.10;99.90;;;;;;6062907;23;19955;-81
2022/05/19 09:05:26;;;;;;;;;;;21.10;99.90;;;;;;6064452;23;19956;-81
2022/05/19 09:07:59;;;;;;;;;;;21.10;99.90;;;;;;6062907;23;19901;-80
2022/05/19 09:10:31;;;;;;;;;;;21.20;99.90;;;;;;6064385;23;19908;-80
2022/05/19 09:13:09;;;;;;;;;;;21.20;99.90;;;;;;6062758;23;19912;-80
2022/05/19 09:15:35;;;;;;;;;;;21.20;99.90;;;;;;6064260;23;19905;-80
2022/05/19 09:18:01;;;;;;;;;;;21.20;99.90;;;;;;6062721;23;19913;-81
2022/05/19 09:20:34;;;;;;;;;;;21.30;99.90;;;;;;6062786;23;19902;-81
2022/05/19 09:23:04;;;;;;;;;;;21.20;99.90;;;;;;6062752;23;19901;-81
2022/05/19 09:25:30;;;;;;;;;;;21.20;99.90;;;;;;6062648;23;19980;-81
2022/05/19 09:27:58;;;;;;;;;;;21.30;99.90;;;;;;6064182;23;20016;-80
2022/05/19 09:30:29;;;;;;;;;;;21.30;99.90;;;;;;6062553;23;19940;-81
2022/05/19 09:32:56;;;;;;;;;;;21.40;99.90;;;;;;6062594;23;19906;-81
2022/05/19 09:35:24;;;;;;;;;;;21.40;99.90;;;;;;6065316;23;20314;-81
2022/05/19 09:38:03;;;;;;;;;;;21.40;99.90;;;;;;6064071;23;19901;-80
2022/05/19 09:40:30;;;;;;;;;;;21.40;99.90;;;;;;6064079;23;20380;-80
2022/05/19 09:43:15;;;;;;;;;;;21.50;99.90;;;;;;6063970;23;19901;-81
2022/05/19 09:45:45;;;;;;;;;;;21.80;99.90;;;;;;6063999;23;19906;-80
2022/05/19 09:48:11;;;;;;;;;;;22.00;99.90;;;;;;6065469;23;19905;-80
2022/05/19 09:50:43;;;;;;;;;;;22.10;99.90;;;;;;6065519;23;20314;-81
2022/05/19 09:53:13;;;;;;;;;;;22.10;99.90;;;;;;6065395;23;20237;-80
2022/05/19 09:55:39;;;;;;;;;;;22.10;99.90;;;;;;6065804;23;19908;-80
2022/05/19 09:58:07;;;;;;;;;;;22.00;99.90;;;;;;6088708;23;19920;-81
2022/05/19 10:00:36;;;;;;;;;;;22.00;99.90;;;;;;6094576;23;19901;-80
2022/05/19 10:03:02;;;;;;;;;;;22.00;99.90;;;;;;6094250;23;19910;-81
2022/05/19 10:05:39;;;;;;;;;;;22.00;99.90;;;;;;6094250;23;19901;-80
2022/05/19 10:08:07;;;;;;;;;;;22.00;99.90;;;;;;6068704;23;19906;-81
2022/05/19 10:10:35;;;;;;;;;;;22.00;99.90;;;;;;6068653;23;19944;-80
2022/05/19 10:13:03;;;;;;;;;;;22.00;99.90;;;;;;6094115;23;19984;-80
2022/05/19 10:15:40;;;;;;;;;;;22.00;99.90;;;;;;6068808;23;20272;-81
2022/05/19 10:18:20;;;;;;;;;;;22.00;99.90;;;;;;6094229;23;19902;-81
2022/05/19 10:20:54;;;;;;;;;;;22.00;99.90;;;;;;6094186;23;19901;-81
2022/05/19 10:23:38;;;;;;;;;;;22.00;99.90;;;;;;6068656;23;19940;-81
2022/05/19 10:26:15;;;;;;;;;;;22.00;99.90;;;;;;6068645;23;19932;-81
2022/05/19 10:31:53;;;;;;;;;;;22.00;99.90;;;;;;6094191;23;20035;-81
2022/05/19 10:34:45;;;;;;;;;;;22.00;99.90;;;;;;6094299;23;19976;-80
2022/05/19 10:37:16;;;;;;;;;;;22.00;99.90;;;;;;6060569;23;19901;-80
2022/05/19 10:39:59;;;;;;;;;;;22.00;99.90;;;;;;6094126;23;19905;-81
2022/05/19 10:42:37;;;;;;;;;;;22.00;99.90;;;;;;6068509;23;19905;-80
2022/05/19 10:45:22;;;;;;;;;;;22.00;99.90;;;;;;6093791;23;19901;-81
2022/05/19 10:47:47;;;;;;;;;;;22.00;99.90;;;;;;6068522;23;19908;-81
2022/05/19 10:50:17;;;;;;;;;;;22.00;99.90;;;;;;6068489;23;19901;-80
2022/05/19 10:52:58;;;;;;;;;;;22.00;99.90;;;;;;6094306;23;19959;-80
2022/05/19 10:55:42;;;;;;;;;;;22.00;99.90;;;;;;6093907;23;19910;-81
2022/05/19 10:58:19;;;;;;;;;;;22.00;99.90;;;;;;6092579;23;20039;-80
2022/05/19 11:00:46;;;;;;;;;;;22.00;99.90;;;;;;6066585;23;19901;-81
2022/05/19 11:03:24;;;;;;;;;;;22.10;99.90;;;;;;6092847;23;19959;-81
2022/05/19 11:05:50;;;;;;;;;;;22.10;99.90;;;;;;6066620;23;19901;-81
2022/05/19 11:08:22;;;;;;;;;;;22.10;99.90;;;;;;6066594;23;20014;-80
2022/05/19 11:10:54;;;;;;;;;;;22.20;99.90;;;;;;6066634;23;20357;-81
2022/05/19 11:13:23;;;;;;;;;;;22.20;99.90;;;;;;6066466;23;19905;-81
2022/05/19 11:15:52;;;;;;;;;;;22.20;99.90;;;;;;6066512;23;19908;-81
2022/05/19 11:18:24;;;;;;;;;;;22.20;99.90;;;;;;6066521;23;19965;-80
2022/05/19 11:21:08;;;;;;;;;;;22.20;99.90;;;;;;6066450;23;19929;-80
2022/05/19 11:23:34;;;;;;;;;;;22.30;99.90;;;;;;6092626;23;19943;-81
2022/05/19 11:26:25;;;;;;;;;;;22.30;99.90;;;;;;6066467;23;20234;-81
2022/05/19 11:28:51;;;;;;;;;;;22.30;99.90;;;;;;6092403;23;19901;-81
2022/05/19 11:31:20;;;;;;;;;;;22.30;99.90;;;;;;6092297;23;19940;-81
2022/05/19 11:33:49;;;;;;;;;;;22.40;99.90;;;;;;6066393;23;19908;-81
2022/05/19 11:36:25;;;;;;;;;;;22.40;99.90;;;;;;6066398;23;19901;-81
2022/05/19 11:38:50;;;;;;;;;;;22.40;99.90;;;;;;6066787;23;20004;-81
2022/05/19 11:41:35;;;;;;;;;;;22.40;99.90;;;;;;6092655;23;19905;-81
2022/05/19 11:44:07;;;;;;;;;;;22.50;99.90;;;;;;6066345;23;19984;-81
2022/05/19 11:46:52;;;;;;;;;;;22.50;99.90;;;;;;6092269;23;19908;-81
2022/05/19 11:57:42;;;;;;;;;;;22.60;99.90;;;;;;6045530;23;1123816;-81
2022/05/19 12:00:10;;;;;;;;;;;22.60;99.90;;;;;;6068127;23;19905;-81
2022/05/19 12:02:38;;;;;;;;;;;22.60;99.80;;;;;;6093677;23;19912;-81
2022/05/19 12:05:14;;;;;;;;;;;22.70;99.50;;;;;;6093665;23;19901;-81
2022/05/19 12:07:45;;;;;;;;;;;22.70;99.70;;;;;;6068131;23;19908;-81
2022/05/19 12:10:14;;;;;;;;;;;22.70;99.40;;;;;;6068170;23;19905;-81
2022/05/19 12:12:43;;;;;;;;;;;22.70;99.50;;;;;;6093557;23;19958;-81
2022/05/19 12:15:24;;;;;;;;;;;22.70;99.50;;;;;;6068177;23;20317;-81
2022/05/19 12:17:56;;;;;;;;;;;22.70;99.50;;;;;;6093830;23;19908;-80
2022/05/19 12:20:31;;;;;;;;;;;22.60;99.50;;;;;;6093607;23;20317;-81
2022/05/19 12:23:15;;;;;;;;;;;22.60;99.40;;;;;;6093446;23;19948;-81
2022/05/19 12:25:42;;;;;;;;;;;22.60;99.30;;;;;;6068209;23;19933;-81
2022/05/19 12:28:14;;;;;;;;;;;22.60;99.30;;;;;;6068032;23;19912;-81
2022/05/19 12:33:35;;;;;;;;;;;22.70;99.00;;;;;;6093849;23;19913;-81
2022/05/19 12:36:05;;;;;;;;;;;22.80;98.90;;;;;;6093449;23;20306;-80
2022/05/19 12:38:33;;;;;;;;;;;22.80;98.60;;;;;;6067877;23;19901;-81
2022/05/19 12:41:04;;;;;;;;;;;22.80;98.40;;;;;;6067954;23;19929;-81
2022/05/19 12:43:37;;;;;;;;;;;22.90;98.50;;;;;;6093432;23;20241;-81
2022/05/19 12:46:03;;;;;;;;;;;23.00;98.40;;;;;;6067775;23;19901;-81
2022/05/19 12:48:32;;;;;;;;;;;23.00;98.10;;;;;;6067826;23;19976;-81
2022/05/19 12:51:18;;;;;;;;;;;23.10;98.00;;;;;;6093302;23;19908;-81
2022/05/19 12:53:49;;;;;;;;;;;23.10;97.80;;;;;;6092605;23;19905;-81
2022/05/19 12:56:34;;;;;;;;;;;23.20;97.90;;;;;;6067480;23;20329;-81
2022/05/19 12:59:01;;;;;;;;;;;23.30;97.60;;;;;;6067927;23;20281;-81
2022/05/19 13:01:30;;;;;;;;;;;23.40;97.50;;;;;;6067696;23;19901;-81
2022/05/19 13:04:11;;;;;;;;;;;23.30;97.30;;;;;;6067681;23;19902;-81
2022/05/19 13:06:59;;;;;;;;;;;23.40;97.30;;;;;;6067650;23;19931;-81
2022/05/19 13:09:34;;;;;;;;;;;23.40;97.20;;;;;;6060278;23;19908;-81
2022/05/19 13:12:02;;;;;;;;;;;23.50;97.00;;;;;;6068945;23;19955;-81
2022/05/19 13:14:43;;;;;;;;;;;23.60;96.80;;;;;;6094402;23;20233;-81
2022/05/19 13:17:19;;;;;;;;;;;23.60;97.00;;;;;;6068942;23;19901;-81
2022/05/19 13:19:44;;;;;;;;;;;23.60;96.80;;;;;;6068925;23;19955;-81
2022/05/19 13:22:19;;;;;;;;;;;23.70;96.70;;;;;;6068976;23;19901;-81
2022/05/19 13:24:45;;;;;;;;;;;23.70;96.80;;;;;;6094401;23;19908;-81
2022/05/19 13:30:22;;;;;;;;;;;23.60;96.90;;;;;;6094810;23;19908;-81
2022/05/19 13:32:48;;;;;;;;;;;23.80;96.80;;;;;;6068784;23;19905;-81
2022/05/19 13:35:21;;;;;;;;;;;23.90;96.60;;;;;;6094348;23;19981;-81
2022/05/19 13:37:47;;;;;;;;;;;24.00;96.40;;;;;;6094377;23;19980;-82
2022/05/19 13:40:13;;;;;;;;;;;24.10;96.10;;;;;;6094668;23;20333;-81
2022/05/19 13:42:42;;;;;;;;;;;24.20;96.20;;;;;;6068912;23;19901;-81
2022/05/19 13:45:08;;;;;;;;;;;24.20;95.90;;;;;;6094678;23;19906;-81
2022/05/19 13:47:34;;;;;;;;;;;24.30;96.00;;;;;;6094297;23;20292;-80
2022/05/19 13:50:01;;;;;;;;;;;24.30;95.60;;;;;;6094335;23;19901;-82
2022/05/19 13:52:33;;;;;;;;;;;24.30;95.70;;;;;;6068749;23;19909;-81
2022/05/19 13:54:59;;;;;;;;;;;24.30;95.70;;;;;;6094451;23;19985;-81
2022/05/19 13:57:33;;;;;;;;;;;24.30;95.50;;;;;;6068586;23;20286;-81
2022/05/19 14:00:02;;;;;;;;;;;24.30;95.40;;;;;;6094687;23;19909;-81
2022/05/19 14:02:30;;;;;;;;;;;24.40;95.50;;;;;;6068759;23;19905;-81
2022/05/19 14:04:56;;;;;;;;;;;24.40;95.50;;;;;;6068724;23;19901;-81
2022/05/19 14:07:22;;;;;;;;;;;24.40;95.20;;;;;;6068769;23;20249;-81
2022/05/19 14:09:48;;;;;;;;;;;24.30;95.00;;;;;;6094620;23;20311;-82
2022/05/19 14:12:13;;;;;;;;;;;24.20;95.20;;;;;;6068620;23;19905;-82
2022/05/19 14:14:46;;;;;;;;;;;24.30;95.20;;;;;;6068686;23;19901;-81
2022/05/19 14:17:12;;;;;;;;;;;24.20;95.30;;;;;;6094238;23;20281;-81
2022/05/19 14:19:37;;;;;;;;;;;24.20;95.60;;;;;;6094192;23;19905;-81
2022/05/19 14:22:03;;;;;;;;;;;24.20;95.60;;;;;;6094249;23;20237;-82
2022/05/19 14:24:29;;;;;;;;;;;24.10;95.30;;;;;;6068587;23;19927;-81
2022/05/19 14:26:56;;;;;;;;;;;24.10;95.70;;;;;;6094220;23;19901;-81
2022/05/19 14:29:27;;;;;;;;;;;24.10;95.80;;;;;;6068587;23;19902;-81
2022/05/19 14:31:54;;;;;;;;;;;24.10;95.90;;;;;;6068576;23;20310;-81
2022/05/19 14:34:20;;;;;;;;;;;24.00;96.00;;;;;;6094156;23;19905;-81
2022/05/19 14:36:55;;;;;;;;;;;23.90;96.00;;;;;;6068635;23;19978;-81
2022/05/19 14:39:40;;;;;;;;;;;23.80;95.90;;;;;;6068550;23;20314;-81
2022/05/19 14:44:54;;;;;;;;;;;23.70;96.30;;;;;;6094565;23;20008;-81
2022/05/19 14:47:21;;;;;;;;;;;23.60;96.50;;;;;;6068446;23;19916;-81
2022/05/19 14:49:50;;;;;;;;;;;23.60;96.60;;;;;;6068502;23;19901;-81
2022/05/19 14:52:16;;;;;;;;;;;23.50;96.70;;;;;;6093983;23;19905;-82